createdAt,value
2023-04-07T00:00:50.011Z,1.15
2023-04-07T00:03:24.904Z,1.15
2023-04-07T00:05:53.885Z,1.14
2023-04-07T00:08:22.067Z,1.14
2023-04-07T00:10:50.345Z,1.14
2023-04-07T00:13:19.877Z,1.14
2023-04-07T00:15:49.417Z,1.14
2023-04-07T00:18:17.675Z,1.15
2023-04-07T00:20:45.941Z,1.15
2023-04-07T00:23:14.245Z,1.14
2023-04-07T00:25:43.535Z,1.15
2023-04-07T00:28:12.537Z,1.15
2023-04-07T00:30:43.621Z,1.14
2023-04-07T00:33:12.539Z,1.14
2023-04-07T00:35:40.889Z,1.14
2023-04-07T00:38:09.158Z,1.14
2023-04-07T00:40:37.361Z,1.14
2023-04-07T00:43:07.162Z,1.14
2023-04-07T00:45:36.873Z,1.15
2023-04-07T00:48:05.847Z,1.17
2023-04-07T00:50:34.696Z,1.18
2023-04-07T00:53:02.919Z,1.19
2023-04-07T00:55:32.175Z,1.21
2023-04-07T00:58:01.381Z,1.21
2023-04-07T01:00:36.433Z,1.21
2023-04-07T01:03:10.056Z,1.20
2023-04-07T01:05:45.533Z,1.20
2023-04-07T01:08:39.001Z,1.19
2023-04-07T01:11:35.710Z,1.19
2023-04-07T01:14:04.570Z,1.17
2023-04-07T01:16:46.881Z,1.16
2023-04-07T01:19:40.401Z,1.17
2023-04-07T01:22:13.074Z,1.16
2023-04-07T01:25:28.025Z,1.17
2023-04-07T01:28:16.210Z,1.18
2023-04-07T01:30:44.908Z,1.18
2023-04-07T01:33:14.743Z,1.19
2023-04-07T01:35:43.431Z,1.20
2023-04-07T01:38:12.330Z,1.22
2023-04-07T01:40:40.744Z,1.23
2023-04-07T01:50:47.101Z,1.30
2023-04-07T01:53:15.803Z,1.30
2023-04-07T01:55:44.000Z,1.32
2023-04-07T01:58:13.909Z,1.33
2023-04-07T02:00:44.057Z,1.33
2023-04-07T02:03:23.758Z,1.33
2023-04-07T02:05:54.923Z,1.32
2023-04-07T02:08:24.769Z,1.30
2023-04-07T02:10:55.974Z,1.30
2023-04-07T02:13:25.081Z,1.29
2023-04-07T02:15:54.083Z,1.28
2023-04-07T02:18:23.184Z,1.28
2023-04-07T02:20:51.261Z,1.29
2023-04-07T02:23:19.230Z,1.28
2023-04-07T02:25:48.438Z,1.28
2023-04-07T02:31:20.782Z,1.32
2023-04-07T02:33:49.896Z,1.30
2023-04-07T02:36:18.063Z,1.30
2023-04-07T02:38:46.857Z,1.30
2023-04-07T02:41:15.435Z,1.30
2023-04-07T02:43:44.756Z,1.30
2023-04-07T02:46:14.265Z,1.30
2023-04-07T02:48:43.786Z,1.31
2023-04-07T02:51:11.954Z,1.31
2023-04-07T02:53:40.245Z,1.31
2023-04-07T02:56:08.424Z,1.31
2023-04-07T02:58:36.607Z,1.31
2023-04-07T03:01:05.569Z,1.30
2023-04-07T03:03:36.705Z,1.29
2023-04-07T03:06:12.048Z,1.28
2023-04-07T03:08:48.038Z,1.28
2023-04-07T03:11:16.405Z,1.27
2023-04-07T03:13:44.790Z,1.27
2023-04-07T03:16:13.084Z,1.27
2023-04-07T03:18:51.555Z,1.27
2023-04-07T03:21:20.847Z,1.26
2023-04-07T03:23:54.002Z,1.26
2023-04-07T03:26:22.748Z,1.27
2023-04-07T03:28:51.172Z,1.28
2023-04-07T03:31:21.844Z,1.28
2023-04-07T03:33:53.317Z,1.28
2023-04-07T03:36:24.664Z,1.29
2023-04-07T03:38:52.938Z,1.28
2023-04-07T03:41:21.704Z,1.28
2023-04-07T03:43:50.105Z,1.28
2023-04-07T03:46:20.889Z,1.29
2023-04-07T03:48:49.755Z,1.28
2023-04-07T03:51:18.490Z,1.29
2023-04-07T03:53:47.645Z,1.30
2023-04-07T03:56:28.955Z,1.31
2023-04-07T03:59:00.741Z,1.31
2023-04-07T04:01:31.952Z,1.33
2023-04-07T04:04:05.899Z,1.34
2023-04-07T04:06:37.123Z,1.35
2023-04-07T04:09:15.624Z,1.35
2023-04-07T04:11:47.151Z,1.36
2023-04-07T04:14:16.060Z,1.36
2023-04-07T04:16:47.558Z,1.37
2023-04-07T04:19:34.072Z,1.38
2023-04-07T04:22:05.692Z,1.39
2023-04-07T04:24:36.634Z,1.38
2023-04-07T04:27:05.844Z,1.37
2023-04-07T04:29:36.279Z,1.37
2023-04-07T04:32:05.408Z,1.39
2023-04-07T04:34:36.768Z,1.39
2023-04-07T04:37:06.033Z,1.40
2023-04-07T04:39:34.998Z,1.41
2023-04-07T04:42:05.728Z,1.42
2023-04-07T04:44:36.904Z,1.43
2023-04-07T04:47:14.702Z,1.43
2023-04-07T04:49:42.968Z,1.44
2023-04-07T04:52:11.046Z,1.47
2023-04-07T04:54:43.981Z,1.50
2023-04-07T04:57:13.015Z,1.53
2023-04-07T04:59:42.492Z,1.54
2023-04-07T05:02:12.507Z,1.54
2023-04-07T05:04:41.513Z,1.54
2023-04-07T05:07:27.952Z,1.53
2023-04-07T05:10:02.955Z,1.52
2023-04-07T05:12:33.207Z,1.55
2023-04-07T05:15:09.234Z,1.58
2023-04-07T05:17:38.526Z,1.59
2023-04-07T05:20:09.855Z,1.64
2023-04-07T05:22:43.631Z,1.67
2023-04-07T05:25:16.284Z,1.72
2023-04-07T05:27:47.030Z,1.79
2023-04-07T05:30:22.332Z,1.85
2023-04-07T05:32:53.110Z,1.90
2023-04-07T05:35:40.457Z,1.95
2023-04-07T05:38:11.853Z,1.99
2023-04-07T05:40:40.914Z,2.03
2023-04-07T05:43:10.654Z,2.06
2023-04-07T05:45:39.237Z,2.07
2023-04-07T05:48:08.042Z,2.07
2023-04-07T05:50:46.017Z,2.09
2023-04-07T05:53:17.616Z,2.08
2023-04-07T05:55:50.009Z,2.07
2023-04-07T05:58:28.106Z,2.11
2023-04-07T06:00:57.206Z,2.14
2023-04-07T06:03:26.761Z,2.18
2023-04-07T06:06:15.653Z,2.24
2023-04-07T06:08:44.057Z,2.29
2023-04-07T06:11:13.949Z,2.38
2023-04-07T06:13:42.034Z,2.49
2023-04-07T06:16:16.817Z,2.57
2023-04-07T06:18:46.694Z,2.64
2023-04-07T06:21:15.648Z,2.71
2023-04-07T06:23:45.559Z,2.78
2023-04-07T06:26:14.099Z,2.85
2023-04-07T06:28:42.404Z,2.91
2023-04-07T06:31:11.220Z,2.99
2023-04-07T06:33:40.619Z,3.04
2023-04-07T06:36:08.960Z,3.10
2023-04-07T06:38:37.135Z,3.15
2023-04-07T06:41:06.338Z,3.20
2023-04-07T06:43:37.718Z,3.24
2023-04-07T06:46:06.386Z,3.30
2023-04-07T06:48:34.615Z,3.35
2023-04-07T06:51:03.143Z,3.38
2023-04-07T06:53:31.618Z,3.43
2023-04-07T06:56:04.135Z,3.49
2023-04-07T06:58:32.844Z,3.55
2023-04-07T07:01:02.811Z,3.60
2023-04-07T07:03:32.411Z,3.65
2023-04-07T07:06:00.733Z,3.69
2023-04-07T07:08:29.322Z,3.72
2023-04-07T07:10:57.674Z,3.77
2023-04-07T07:13:26.797Z,3.81
2023-04-07T07:15:55.217Z,3.86
2023-04-07T07:18:23.229Z,3.93
2023-04-07T07:20:51.632Z,4.02
2023-04-07T07:23:19.930Z,4.09
2023-04-07T07:25:48.735Z,4.16
2023-04-07T07:28:17.091Z,4.24
2023-04-07T07:30:45.265Z,4.31
2023-04-07T07:33:14.133Z,4.40
2023-04-07T07:35:42.422Z,4.51
2023-04-07T07:38:11.638Z,4.62
2023-04-07T07:40:39.705Z,4.78
2023-04-07T07:43:09.435Z,4.93
2023-04-07T07:45:38.500Z,5.08
2023-04-07T07:48:06.609Z,5.23
2023-04-07T07:50:35.881Z,5.34
2023-04-07T07:53:04.155Z,5.44
2023-04-07T07:55:33.700Z,5.54
2023-04-07T07:58:01.797Z,5.62
2023-04-07T08:00:30.039Z,5.69
2023-04-07T08:03:00.784Z,5.76
2023-04-07T08:05:30.001Z,5.87
2023-04-07T08:07:58.548Z,5.98
2023-04-07T08:10:26.836Z,6.09
2023-04-07T08:12:58.580Z,6.17
2023-04-07T08:15:27.202Z,6.23
2023-04-07T08:17:56.306Z,6.26
2023-04-07T08:20:27.324Z,6.25
2023-04-07T08:22:55.709Z,6.22
2023-04-07T08:25:26.209Z,6.18
2023-04-07T08:27:56.710Z,6.10
2023-04-07T08:30:25.274Z,6.05
2023-04-07T08:33:08.725Z,5.98
2023-04-07T08:35:38.773Z,5.89
2023-04-07T08:38:09.000Z,5.80
2023-04-07T08:40:37.125Z,5.75
2023-04-07T08:43:09.957Z,5.70
2023-04-07T08:45:39.716Z,5.66
2023-04-07T08:48:13.821Z,5.63
2023-04-07T08:50:43.023Z,5.60
2023-04-07T08:53:13.144Z,5.54
2023-04-07T08:55:42.089Z,5.50
2023-04-07T08:58:13.644Z,5.51
2023-04-07T09:00:43.191Z,5.50
2023-04-07T09:03:21.753Z,5.50
2023-04-07T09:05:51.373Z,5.51
2023-04-07T09:08:19.498Z,5.53
2023-04-07T09:10:49.594Z,5.57
2023-04-07T09:13:18.102Z,5.61
2023-04-07T09:15:46.320Z,5.64
2023-04-07T09:18:14.938Z,5.66
2023-04-07T09:20:54.493Z,5.71
2023-04-07T09:23:33.806Z,5.75
2023-04-07T09:26:17.827Z,5.78
2023-04-07T09:28:47.272Z,5.78
2023-04-07T09:31:15.485Z,5.80
2023-04-07T09:33:44.708Z,5.84
2023-04-07T09:36:14.382Z,5.87
2023-04-07T09:38:44.294Z,5.88
2023-04-07T09:41:17.219Z,5.91
2023-04-07T09:43:48.774Z,5.94
2023-04-07T09:46:19.039Z,5.99
2023-04-07T09:48:49.939Z,6.05
2023-04-07T09:51:18.423Z,6.12
2023-04-07T09:53:49.055Z,6.13
2023-04-07T09:56:24.196Z,6.14
2023-04-07T09:58:53.182Z,6.17
2023-04-07T10:01:22.159Z,6.20
2023-04-07T10:03:51.808Z,6.23
2023-04-07T10:06:30.966Z,6.25
2023-04-07T10:09:08.413Z,6.30
2023-04-07T10:11:37.758Z,6.37
2023-04-07T10:14:05.972Z,6.45
2023-04-07T10:16:34.852Z,6.54
2023-04-07T10:19:03.481Z,6.64
2023-04-07T10:21:36.824Z,6.73
2023-04-07T10:24:22.686Z,6.81
2023-04-07T10:26:52.332Z,6.91
2023-04-07T10:29:20.410Z,7.01
2023-04-07T10:31:48.814Z,7.12
2023-04-07T10:34:50.329Z,7.22
2023-04-07T10:37:21.340Z,7.33
2023-04-07T10:39:51.200Z,7.41
2023-04-07T10:42:37.740Z,7.37
2023-04-07T10:45:09.717Z,7.27
2023-04-07T10:48:03.120Z,7.21
2023-04-07T10:50:31.954Z,7.20
2023-04-07T10:53:08.467Z,7.25
2023-04-07T10:55:37.852Z,7.36
2023-04-07T10:58:31.037Z,7.46
2023-04-07T11:01:12.600Z,7.57
2023-04-07T11:03:53.947Z,7.66
2023-04-07T11:06:23.058Z,7.73
2023-04-07T11:08:51.691Z,7.76
2023-04-07T11:11:46.373Z,7.77
2023-04-07T11:14:28.877Z,7.73
2023-04-07T11:16:57.175Z,7.75
2023-04-07T11:19:25.456Z,7.86
2023-04-07T11:22:29.218Z,8.02
2023-04-07T11:24:59.017Z,8.24
2023-04-07T11:27:28.674Z,8.40
2023-04-07T11:29:56.881Z,8.55
2023-04-07T11:36:07.297Z,8.76
2023-04-07T11:38:36.014Z,8.74
2023-04-07T11:41:13.950Z,8.69
2023-04-07T11:43:41.645Z,8.61
2023-04-07T11:46:09.978Z,8.51
2023-04-07T11:48:46.835Z,8.35
2023-04-07T11:51:17.732Z,8.17
2023-04-07T11:53:44.538Z,8.04
2023-04-07T11:56:16.367Z,7.89
2023-04-07T11:58:47.896Z,7.74
2023-04-07T12:01:15.274Z,7.66
2023-04-07T12:03:58.800Z,7.60
2023-04-07T12:06:34.166Z,7.54
2023-04-07T12:09:01.861Z,7.45
2023-04-07T12:11:29.445Z,7.35
2023-04-07T12:13:57.132Z,7.29
2023-04-07T12:16:24.004Z,7.21
2023-04-07T12:18:51.391Z,7.17
2023-04-07T12:21:18.761Z,7.21
2023-04-07T12:23:46.994Z,7.35
2023-04-07T12:26:13.738Z,7.51
2023-04-07T12:28:40.734Z,7.68
2023-04-07T12:31:07.636Z,7.81
2023-04-07T12:33:34.342Z,7.88
2023-04-07T12:36:01.333Z,7.93
2023-04-07T12:38:28.368Z,7.96
2023-04-07T12:40:55.143Z,8.01
2023-04-07T12:43:22.427Z,8.06
2023-04-07T12:45:49.519Z,8.08
2023-04-07T12:48:18.204Z,8.08
2023-04-07T12:50:45.057Z,8.13
2023-04-07T12:53:14.366Z,8.20
2023-04-07T12:55:41.928Z,8.24
2023-04-07T12:58:08.855Z,8.26
2023-04-07T13:00:37.324Z,8.26
2023-04-07T13:03:12.186Z,8.23
2023-04-07T13:05:39.014Z,8.20
2023-04-07T13:08:07.695Z,8.15
2023-04-07T13:10:34.624Z,8.03
2023-04-07T13:13:04.110Z,7.93
2023-04-07T13:15:32.042Z,7.89
2023-04-07T13:17:59.141Z,7.83
2023-04-07T13:20:27.452Z,7.80
2023-04-07T13:23:05.952Z,7.77
2023-04-07T13:25:37.861Z,7.63
2023-04-07T13:28:06.935Z,7.55
2023-04-07T13:30:33.936Z,7.55
2023-04-07T13:33:00.988Z,7.58
2023-04-07T13:35:29.541Z,7.60
2023-04-07T13:37:56.443Z,7.61
2023-04-07T13:40:23.216Z,7.61
2023-04-07T13:42:50.203Z,7.57
2023-04-07T13:45:16.980Z,7.53
2023-04-07T13:47:44.105Z,7.52
2023-04-07T13:50:11.386Z,7.52
2023-04-07T13:52:38.528Z,7.48
2023-04-07T13:55:06.736Z,7.44
2023-04-07T13:57:33.552Z,7.39
2023-04-07T14:00:02.118Z,7.34
2023-04-07T14:02:36.772Z,7.28
2023-04-07T14:05:03.998Z,7.25
2023-04-07T14:07:31.244Z,7.26
2023-04-07T14:09:58.014Z,7.25
2023-04-07T14:12:24.854Z,7.21
2023-04-07T14:22:31.413Z,7.16
2023-04-07T14:24:59.710Z,7.16
2023-04-07T14:27:34.166Z,7.17
2023-04-07T14:30:03.271Z,7.13
2023-04-07T14:32:33.406Z,7.06
2023-04-07T14:35:02.909Z,6.97
2023-04-07T14:37:31.563Z,6.89
2023-04-07T14:40:02.982Z,6.81
2023-04-07T14:42:33.616Z,6.73
2023-04-07T14:45:02.062Z,6.66
2023-04-07T14:49:53.419Z,6.52
2023-04-07T14:52:23.875Z,6.40
2023-04-07T14:54:52.190Z,6.32
2023-04-07T14:57:20.707Z,6.28
2023-04-07T14:59:49.148Z,6.22
2023-04-07T15:02:20.570Z,6.18
2023-04-07T15:04:49.717Z,6.15
2023-04-07T15:07:19.084Z,6.12
2023-04-07T15:09:47.891Z,6.06
2023-04-07T15:12:16.233Z,5.99
2023-04-07T15:14:51.255Z,5.94
2023-04-07T15:19:48.955Z,5.81
2023-04-07T15:22:23.827Z,5.74
2023-04-07T15:24:52.020Z,5.70
2023-04-07T15:27:20.614Z,5.66
2023-04-07T15:29:49.238Z,5.64
2023-04-07T15:32:17.636Z,5.63
2023-04-07T15:34:47.402Z,5.61
2023-04-07T15:37:17.412Z,5.62
2023-04-07T15:39:46.916Z,5.59
2023-04-07T15:42:15.938Z,5.56
2023-04-07T15:44:44.552Z,5.52
2023-04-07T15:47:13.043Z,5.46
2023-04-07T15:49:42.427Z,5.39
2023-04-07T15:52:12.069Z,5.29
2023-04-07T15:54:40.908Z,5.20
2023-04-07T15:57:09.889Z,5.14
2023-04-07T15:59:38.464Z,5.10
2023-04-07T16:02:06.667Z,5.05
2023-04-07T16:04:35.404Z,5.01
2023-04-07T16:07:03.645Z,4.99
2023-04-07T16:09:33.959Z,4.96
2023-04-07T16:12:02.701Z,4.91
2023-04-07T16:14:32.002Z,4.88
2023-04-07T16:17:01.287Z,4.81
2023-04-07T16:19:29.559Z,4.75
2023-04-07T16:21:57.702Z,4.72
2023-04-07T16:24:25.936Z,4.70
2023-04-07T16:26:55.907Z,4.66
2023-04-07T16:29:28.011Z,4.66
2023-04-07T16:31:56.953Z,4.64
2023-04-07T16:34:25.432Z,4.59
2023-04-07T16:36:59.996Z,4.55
2023-04-07T16:39:29.520Z,4.51
2023-04-07T16:41:58.638Z,4.49
2023-04-07T16:44:32.771Z,4.46
2023-04-07T16:47:02.937Z,4.43
2023-04-07T16:49:31.862Z,4.41
2023-04-07T16:52:00.192Z,4.40
2023-04-07T16:54:28.484Z,4.40
2023-04-07T16:56:56.760Z,4.40
2023-04-07T16:59:24.740Z,4.40
2023-04-07T17:01:58.660Z,4.39
2023-04-07T17:04:27.316Z,4.37
2023-04-07T17:06:56.021Z,4.36
2023-04-07T17:09:26.001Z,4.35
2023-04-07T17:11:54.149Z,4.34
2023-04-07T17:14:23.325Z,4.33
2023-04-07T17:16:51.444Z,4.33
2023-04-07T17:19:19.823Z,4.32
2023-04-07T17:21:48.325Z,4.31
2023-04-07T17:24:16.922Z,4.30
2023-04-07T17:26:48.403Z,4.29
2023-04-07T17:29:16.914Z,4.28
2023-04-07T17:31:45.452Z,4.26
2023-04-07T17:37:10.413Z,4.27
2023-04-07T17:39:41.471Z,4.23
2023-04-07T17:42:11.520Z,4.19
2023-04-07T17:44:39.929Z,4.16
2023-04-07T17:47:08.150Z,4.12
2023-04-07T17:49:38.584Z,4.08
2023-04-07T17:52:07.388Z,4.05
2023-04-07T17:54:35.663Z,4.03
2023-04-07T17:57:04.187Z,4.00
2023-04-07T17:59:32.181Z,3.97
2023-04-07T18:02:01.178Z,3.95
2023-04-07T18:04:30.472Z,3.93
2023-04-07T18:06:58.796Z,3.91
2023-04-07T18:09:27.736Z,3.90
2023-04-07T18:11:56.568Z,3.91
2023-04-07T18:14:26.123Z,3.93
2023-04-07T18:16:57.107Z,3.94
2023-04-07T18:19:25.704Z,3.94
2023-04-07T18:21:54.514Z,3.94
2023-04-07T18:24:22.730Z,3.95
2023-04-07T18:26:50.771Z,3.97
2023-04-07T18:29:19.384Z,3.99
2023-04-07T18:31:47.889Z,4.00
2023-04-07T18:34:16.276Z,4.01
2023-04-07T18:36:52.405Z,4.00
2023-04-07T18:39:20.607Z,3.97
2023-04-07T18:41:48.670Z,3.96
2023-04-07T18:44:17.593Z,3.95
2023-04-07T18:46:46.412Z,3.96
2023-04-07T18:49:15.385Z,3.99
2023-04-07T18:51:44.665Z,4.02
2023-04-07T18:54:12.729Z,4.06
2023-04-07T18:56:40.905Z,4.08
2023-04-07T18:59:08.969Z,4.11
2023-04-07T19:01:42.481Z,4.13
2023-04-07T19:04:10.877Z,4.14
2023-04-07T19:06:39.077Z,4.16
2023-04-07T19:09:08.549Z,4.18
2023-04-07T19:11:36.946Z,4.19
2023-04-07T19:14:05.919Z,4.17
2023-04-07T19:16:38.142Z,4.13
2023-04-07T19:19:06.131Z,4.09
2023-04-07T19:21:34.299Z,4.06
2023-04-07T19:24:02.333Z,4.04
2023-04-07T19:26:30.347Z,4.02
2023-04-07T19:29:03.442Z,3.99
2023-04-07T19:31:32.176Z,3.94
2023-04-07T19:37:01.599Z,3.89
2023-04-07T19:39:30.037Z,3.85
2023-04-07T19:41:58.710Z,3.85
2023-04-07T19:44:27.139Z,3.84
2023-04-07T19:46:55.225Z,3.84
2023-04-07T19:49:23.747Z,3.84
2023-04-07T19:51:52.749Z,3.83
2023-04-07T19:54:22.817Z,3.82
2023-04-07T19:56:51.297Z,3.79
2023-04-07T19:59:19.486Z,3.75
2023-04-07T20:01:49.176Z,3.71
2023-04-07T20:04:20.924Z,3.67
2023-04-07T20:06:49.110Z,3.65
2023-04-07T20:09:17.618Z,3.64
2023-04-07T20:11:46.157Z,3.64
2023-04-07T20:14:15.445Z,3.64
2023-04-07T20:16:44.618Z,3.64
2023-04-07T20:19:12.799Z,3.64
2023-04-07T20:21:41.252Z,3.64
2023-04-07T20:24:09.159Z,3.66
2023-04-07T20:26:37.245Z,3.69
2023-04-07T20:29:05.925Z,3.71
2023-04-07T20:31:33.837Z,3.72
2023-04-07T20:37:02.282Z,3.78
2023-04-07T20:39:30.890Z,3.76
2023-04-07T20:41:59.459Z,3.75
2023-04-07T20:44:29.459Z,3.74
2023-04-07T20:46:59.330Z,3.71
2023-04-07T20:49:28.662Z,3.69
2023-04-07T20:51:56.936Z,3.67
2023-04-07T20:54:25.410Z,3.66
2023-04-07T20:56:53.634Z,3.65
2023-04-07T20:59:28.238Z,3.65
2023-04-07T21:01:56.673Z,3.64
2023-04-07T21:04:24.919Z,3.64
2023-04-07T21:06:53.126Z,3.65
2023-04-07T21:09:21.422Z,3.65
2023-04-07T21:11:49.329Z,3.65
2023-04-07T21:14:17.255Z,3.64
2023-04-07T21:16:47.250Z,3.65
2023-04-07T21:19:15.861Z,3.66
2023-04-07T21:21:43.840Z,3.66
2023-04-07T21:24:11.768Z,3.68
2023-04-07T21:26:39.645Z,3.68
2023-04-07T21:29:08.093Z,3.68
2023-04-07T21:31:36.374Z,3.68
2023-04-07T21:37:04.415Z,3.70
2023-04-07T21:39:33.143Z,3.69
2023-04-07T21:42:01.955Z,3.69
2023-04-07T21:44:30.434Z,3.68
2023-04-07T21:46:58.922Z,3.65
2023-04-07T21:49:27.641Z,3.63
2023-04-07T21:51:59.092Z,3.60
2023-04-07T21:54:27.288Z,3.58
2023-04-07T21:56:55.355Z,3.56
2023-04-07T21:59:23.654Z,3.53
2023-04-07T22:01:51.857Z,3.46
2023-04-07T22:04:20.208Z,3.38
2023-04-07T22:06:50.150Z,3.34
2023-04-07T22:09:18.439Z,3.31
2023-04-07T22:11:53.602Z,3.25
2023-04-07T22:14:25.049Z,3.17
2023-04-07T22:16:53.502Z,3.07
2023-04-07T22:19:27.340Z,2.97
2023-04-07T22:21:55.489Z,2.88
2023-04-07T22:24:23.670Z,2.81
2023-04-07T22:26:54.019Z,2.74
2023-04-07T22:29:22.512Z,2.66
2023-04-07T22:31:50.822Z,2.61
2023-04-07T22:34:18.973Z,2.56
2023-04-07T22:36:47.134Z,2.51
2023-04-07T22:39:16.241Z,2.49
2023-04-07T22:41:44.424Z,2.49
2023-04-07T22:44:16.916Z,2.49
2023-04-07T22:46:45.144Z,2.50
2023-04-07T22:49:13.308Z,2.50
2023-04-07T22:51:41.362Z,2.51
2023-04-07T22:54:09.569Z,2.53
2023-04-07T22:56:38.772Z,2.56
2023-04-07T22:59:07.253Z,2.61
2023-04-07T23:01:35.481Z,2.66
2023-04-07T23:04:03.650Z,2.71
2023-04-07T23:06:32.158Z,2.77
2023-04-07T23:09:00.522Z,2.82
2023-04-07T23:11:28.871Z,2.85
2023-04-07T23:13:57.264Z,2.88
2023-04-07T23:16:29.094Z,2.91
2023-04-07T23:18:57.533Z,2.93
2023-04-07T23:21:26.354Z,2.95
2023-04-07T23:23:57.285Z,2.97
2023-04-07T23:26:26.868Z,2.99
2023-04-07T23:28:54.884Z,3.00
2023-04-07T23:31:23.504Z,3.02
2023-04-07T23:33:52.379Z,3.03
2023-04-07T23:36:20.460Z,3.03
2023-04-07T23:38:49.513Z,3.05
2023-04-07T23:41:17.952Z,3.05
2023-04-07T23:43:47.593Z,3.06
2023-04-07T23:53:54.980Z,3.20
2023-04-07T23:56:23.368Z,3.19
2023-04-07T23:58:51.662Z,3.22
